Time;durP1;ratioP1;P1;durP2;ratioP2;P2;SDS_P1;SDS_P2;PMS_P1;PMS_P2;Temp;Humidity;BMP_temperature;BMP_pressure;BME280_temperature;BME280_humidity;BME280_pressure;Samples;Min_cycle;Max_cycle;Signal;HPM_P1;HPM_P2
2022/08/20 00:00:45;;;;;;;29.52;16.00;;;21.00;86.10;;;;;;5096470;28;20081;-39
2022/08/20 00:03:16;;;;;;;25.15;15.25;;;21.10;85.90;;;;;;5096827;28;20361;-39
2022/08/20 00:05:46;;;;;;;22.00;13.57;;;21.10;86.00;;;;;;5096347;28;20488;-38
2022/08/20 00:08:12;;;;;;;26.15;15.40;;;21.00;86.00;;;;;;5095233;28;20024;-39
2022/08/20 00:10:41;;;;;;;30.30;17.90;;;21.00;86.40;;;;;;5096410;28;20032;-38
2022/08/20 00:13:10;;;;;;;28.63;15.32;;;21.00;86.50;;;;;;5096771;28;20023;-47
2022/08/20 00:15:37;;;;;;;24.15;15.18;;;21.00;86.40;;;;;;5095883;28;20369;-42
2022/08/20 00:18:04;;;;;;;20.55;14.80;;;21.00;86.30;;;;;;5098026;28;20031;-42
2022/08/20 00:20:35;;;;;;;27.08;14.75;;;20.90;86.50;;;;;;5096023;28;20119;-39
2022/08/20 00:23:01;;;;;;;22.80;14.88;;;20.90;86.70;;;;;;5097998;28;20371;-39
2022/08/20 00:25:28;;;;;;;24.35;16.55;;;20.80;86.70;;;;;;5097368;28;20029;-38
2022/08/20 00:27:55;;;;;;;23.77;16.40;;;20.80;87.00;;;;;;5097157;28;20059;-40
2022/08/20 00:30:22;;;;;;;28.40;16.67;;;20.80;87.10;;;;;;5097819;28;20020;-39
2022/08/20 00:32:58;;;;;;;26.30;15.80;;;20.80;87.40;;;;;;5097570;28;20127;-39
2022/08/20 00:35:27;;;;;;;23.38;16.42;;;20.70;87.80;;;;;;5097425;28;20028;-38
2022/08/20 00:37:53;;;;;;;32.92;18.77;;;20.60;88.10;;;;;;5097271;28;20115;-39
2022/08/20 00:40:24;;;;;;;27.90;16.88;;;20.50;88.40;;;;;;5095671;28;20085;-37
2022/08/20 00:42:56;;;;;;;27.80;16.05;;;20.50;88.50;;;;;;5097640;28;20077;-40
2022/08/20 00:45:24;;;;;;;25.00;16.38;;;20.50;88.40;;;;;;5097154;28;20092;-41
2022/08/20 00:47:49;;;;;;;24.02;14.88;;;20.50;88.40;;;;;;5097150;28;20032;-39
2022/08/20 00:50:20;;;;;;;24.60;14.75;;;20.40;88.30;;;;;;5097524;28;20031;-38
2022/08/20 00:52:49;;;;;;;26.33;17.17;;;20.40;88.30;;;;;;5097444;28;20016;-40
2022/08/20 00:55:18;;;;;;;25.25;15.90;;;20.50;88.30;;;;;;5097933;28;20468;-40
2022/08/20 00:57:48;;;;;;;26.48;15.63;;;20.50;88.30;;;;;;5097645;28;20104;-39
2022/08/20 01:00:22;;;;;;;22.33;15.05;;;20.50;88.10;;;;;;5097945;28;20028;-40
2022/08/20 01:02:49;;;;;;;23.67;14.60;;;20.40;88.20;;;;;;5096305;28;20040;-38
2022/08/20 01:05:15;;;;;;;21.25;13.70;;;20.50;88.20;;;;;;5094830;28;20055;-39
2022/08/20 01:07:43;;;;;;;25.55;15.40;;;20.40;88.20;;;;;;5095177;28;20024;-39
2022/08/20 01:10:15;;;;;;;22.52;14.65;;;20.40;88.30;;;;;;5095403;28;20524;-38
2022/08/20 01:12:45;;;;;;;24.48;14.77;;;20.30;88.20;;;;;;5093870;28;20100;-37
2022/08/20 01:15:16;;;;;;;26.05;15.15;;;20.30;88.40;;;;;;5095103;28;20032;-39
2022/08/20 01:17:46;;;;;;;22.50;15.30;;;20.30;88.60;;;;;;5095404;28;20058;-39
2022/08/20 01:20:14;;;;;;;;;;;20.30;88.80;;;;;;5095563;28;20039;-38
2022/08/20 01:25:56;;;;;;;24.83;14.00;;;20.30;88.70;;;;;;5094908;28;20039;-39
2022/08/20 01:28:32;;;;;;;21.25;14.00;;;20.30;88.80;;;;;;5095288;28;20035;-38
2022/08/20 01:30:58;;;;;;;21.45;14.32;;;20.20;88.60;;;;;;5093395;28;20024;-40
2022/08/20 01:33:24;;;;;;;20.85;13.13;;;20.30;88.70;;;;;;5094599;28;20073;-38
2022/08/20 01:35:50;;;;;;;22.58;14.10;;;20.30;88.30;;;;;;5094893;28;20486;-38
2022/08/20 01:38:17;;;;;;;22.45;13.45;;;20.30;88.70;;;;;;5094570;28;20035;-38
2022/08/20 01:40:58;;;;;;;20.95;13.27;;;20.30;88.60;;;;;;5094765;28;20047;-38
2022/08/20 01:43:24;;;;;;;18.40;13.45;;;20.30;88.40;;;;;;5094535;28;20103;-38
2022/08/20 01:45:51;;;;;;;21.35;12.30;;;20.30;88.40;;;;;;5094335;28;20035;-37
2022/08/20 01:48:18;;;;;;;21.25;12.18;;;20.30;88.40;;;;;;5094474;28;20077;-38
2022/08/20 01:51:07;;;;;;;24.33;13.48;;;20.30;88.50;;;;;;5094590;28;20133;-39
2022/08/20 01:53:36;;;;;;;19.67;12.65;;;20.30;88.70;;;;;;5094078;28;20485;-39
2022/08/20 01:56:06;;;;;;;21.00;12.88;;;20.30;88.60;;;;;;5094283;28;20031;-39
2022/08/20 01:58:34;;;;;;;20.33;11.63;;;20.30;88.30;;;;;;5094048;28;20115;-38
2022/08/20 02:01:00;;;;;;;18.23;11.82;;;20.20;88.40;;;;;;5094182;28;20020;-39
2022/08/20 02:03:26;;;;;;;21.98;12.27;;;20.10;88.70;;;;;;5092555;28;20016;-40
2022/08/20 02:05:52;;;;;;;16.00;10.65;;;20.00;89.00;;;;;;5094193;28;20458;-38
2022/08/20 02:08:20;;;;;;;17.30;12.45;;;20.10;89.00;;;;;;5094272;28;20495;-39
2022/08/20 02:10:46;;;;;;;23.30;13.60;;;20.00;89.30;;;;;;5094236;28;20067;-38
2022/08/20 02:13:12;;;;;;;19.80;12.98;;;20.10;89.20;;;;;;5093415;28;20122;-38
2022/08/20 02:15:38;;;;;;;22.90;12.75;;;20.10;89.00;;;;;;5093870;28;20103;-38
2022/08/20 02:18:06;;;;;;;18.77;13.05;;;20.20;89.10;;;;;;5093882;28;20025;-38
2022/08/20 02:20:32;;;;;;;18.55;11.57;;;20.20;88.80;;;;;;5093827;28;20028;-39
2022/08/20 02:22:59;;;;;;;18.67;12.55;;;20.00;89.10;;;;;;5093796;28;20028;-38
2022/08/20 02:25:29;;;;;;;22.63;11.75;;;20.20;89.30;;;;;;5093616;28;20115;-38
2022/08/20 02:27:56;;;;;;;17.85;10.65;;;20.10;89.00;;;;;;5093779;28;20028;-39
2022/08/20 02:30:27;;;;;;;23.88;12.48;;;20.20;88.90;;;;;;5092342;28;20032;-40
2022/08/20 02:32:52;;;;;;;18.95;12.35;;;20.10;89.00;;;;;;5093941;28;20467;-38
2022/08/20 02:35:18;;;;;;;21.83;12.20;;;20.00;89.30;;;;;;5093524;28;20055;-38
2022/08/20 02:37:45;;;;;;;29.58;14.30;;;20.00;89.30;;;;;;5093487;28;20433;-38
2022/08/20 02:40:16;;;;;;;21.77;12.65;;;19.90;89.60;;;;;;5093631;28;20032;-38
2022/08/20 02:42:42;;;;;;;23.02;13.07;;;19.90;89.90;;;;;;5093526;28;20028;-38
2022/08/20 02:45:15;;;;;;;23.17;11.57;;;19.90;89.70;;;;;;5093391;28;20035;-38
2022/08/20 02:47:42;;;;;;;21.35;12.05;;;19.80;89.90;;;;;;5093553;28;20144;-37
2022/08/20 02:50:13;;;;;;;22.65;12.60;;;19.80;90.20;;;;;;5093598;28;20356;-38
2022/08/20 02:52:38;;;;;;;22.92;12.48;;;19.80;90.40;;;;;;5093563;28;20081;-37
2022/08/20 02:55:05;;;;;;;16.27;11.07;;;19.80;90.40;;;;;;5093234;28;20411;-37
2022/08/20 02:57:31;;;;;;;21.17;13.10;;;19.70;90.50;;;;;;5093292;28;20056;-38
2022/08/20 02:59:56;;;;;;;22.55;13.23;;;19.70;90.60;;;;;;5094428;28;20495;-37
2022/08/20 03:02:22;;;;;;;23.17;12.63;;;19.70;90.30;;;;;;5093125;28;20055;-37
2022/08/20 03:04:48;;;;;;;20.80;13.95;;;19.70;90.30;;;;;;5092877;28;20051;-38
2022/08/20 03:07:13;;;;;;;25.83;14.98;;;19.70;90.30;;;;;;5093594;28;20028;-38
2022/08/20 03:09:39;;;;;;;19.95;12.85;;;19.80;90.10;;;;;;5093156;28;20020;-38
2022/08/20 03:12:06;;;;;;;21.45;13.48;;;19.70;89.90;;;;;;5093426;28;20028;-38
2022/08/20 03:14:32;;;;;;;24.10;12.23;;;19.70;90.20;;;;;;5093102;28;20020;-38
2022/08/20 03:16:58;;;;;;;18.58;11.80;;;19.60;90.40;;;;;;5093035;28;20030;-37
2022/08/20 03:19:24;;;;;;;22.77;12.77;;;19.60;90.20;;;;;;5093000;28;20258;-37
2022/08/20 03:21:50;;;;;;;25.15;12.75;;;19.70;90.30;;;;;;5093072;28;20503;-39
2022/08/20 03:24:16;;;;;;;22.20;12.43;;;19.60;90.20;;;;;;5093030;28;20036;-38
2022/08/20 03:26:42;;;;;;;15.57;10.60;;;19.60;90.40;;;;;;5095720;28;20435;-38
2022/08/20 03:29:07;;;;;;;17.77;10.85;;;19.50;90.60;;;;;;5097002;28;20032;-37
2022/08/20 03:31:33;;;;;;;21.35;12.65;;;19.50;90.70;;;;;;5097345;28;20016;-38
2022/08/20 03:33:59;;;;;;;18.83;12.07;;;19.50;90.80;;;;;;5097159;28;20074;-38
2022/08/20 03:36:26;;;;;;;22.50;14.27;;;19.50;90.90;;;;;;5096819;28;20032;-38
2022/08/20 03:38:51;;;;;;;22.77;13.85;;;19.50;91.00;;;;;;5095746;28;20085;-38
2022/08/20 03:41:17;;;;;;;23.92;13.20;;;19.60;90.80;;;;;;5095285;28;20039;-38
2022/08/20 03:43:44;;;;;;;24.08;12.80;;;19.60;90.40;;;;;;5095333;28;20368;-38
2022/08/20 03:46:10;;;;;;;22.60;13.48;;;19.50;90.40;;;;;;5096684;28;20055;-38
2022/08/20 03:48:36;;;;;;;21.08;12.65;;;19.50;90.60;;;;;;5096407;28;20447;-38
2022/08/20 03:51:01;;;;;;;19.92;12.80;;;19.50;90.60;;;;;;5096466;28;20024;-39
2022/08/20 03:53:30;;;;;;;22.23;11.80;;;19.40;90.70;;;;;;5096687;28;20425;-38
2022/08/20 03:55:59;;;;;;;20.45;12.63;;;19.40;90.70;;;;;;5097033;28;20062;-39
2022/08/20 03:58:27;;;;;;;22.40;12.13;;;19.40;90.80;;;;;;5078537;28;20114;-39
2022/08/20 04:00:54;;;;;;;25.05;14.95;;;19.40;90.80;;;;;;5096294;28;20028;-39
2022/08/20 04:03:21;;;;;;;24.10;14.10;;;19.40;90.90;;;;;;5096181;28;20021;-39
2022/08/20 04:05:48;;;;;;;22.33;13.20;;;19.40;91.00;;;;;;5094910;28;20110;-38
2022/08/20 04:08:23;;;;;;;20.65;13.60;;;19.50;90.70;;;;;;5096611;28;20099;-39
2022/08/20 04:10:50;;;;;;;27.73;14.45;;;19.50;90.60;;;;;;5096526;28;20111;-38
2022/08/20 19:03:44;;;;;;;7.32;3.55;;;23.00;45.90;;;;;;5071415;28;20395;-50
2022/08/20 19:06:49;;;;;;;6.03;2.90;;;23.00;46.00;;;;;;5071233;28;20035;-47
2022/08/20 19:09:30;;;;;;;11.95;4.35;;;23.00;46.20;;;;;;5069400;28;20112;-47
2022/08/20 19:12:33;;;;;;;19.52;4.32;;;23.00;46.40;;;;;;5070510;28;20394;-47
2022/08/20 19:15:04;;;;;;;10.27;2.78;;;23.00;46.20;;;;;;5070156;28;20032;-47
2022/08/20 19:17:58;;;;;;;7.60;3.47;;;22.90;46.50;;;;;;5070461;28;20491;-47
2022/08/20 19:20:28;;;;;;;11.25;3.15;;;22.80;46.30;;;;;;5070535;28;20087;-47
2022/08/20 19:23:00;;;;;;;12.23;2.95;;;22.80;46.40;;;;;;5069887;28;20028;-47
2022/08/20 19:25:31;;;;;;;8.95;4.18;;;22.90;46.50;;;;;;5070133;28;20029;-49
2022/08/20 19:28:12;;;;;;;6.22;2.90;;;22.80;46.70;;;;;;5069548;28;20052;-46
2022/08/20 19:30:40;;;;;;;14.00;2.83;;;22.70;47.10;;;;;;5069788;28;20020;-48
2022/08/20 19:33:07;;;;;;;8.80;3.00;;;22.70;47.20;;;;;;5069739;28;20104;-48
2022/08/20 19:35:34;;;;;;;3.80;2.33;;;22.60;47.70;;;;;;5070317;28;20037;-47
2022/08/20 19:38:01;;;;;;;8.43;2.83;;;22.40;48.30;;;;;;5069175;28;20029;-48
2022/08/20 19:40:36;;;;;;;4.88;2.65;;;22.30;49.00;;;;;;5069222;28;20035;-50
2022/08/20 19:43:09;;;;;;;4.85;2.10;;;22.20;49.40;;;;;;5070269;28;20025;-49
2022/08/20 19:45:44;;;;;;;3.97;2.15;;;22.20;49.20;;;;;;5068675;28;20111;-47
2022/08/20 19:48:35;;;;;;;13.20;3.17;;;22.10;50.10;;;;;;5069347;28;20024;-50
2022/08/20 19:51:01;;;;;;;9.68;2.60;;;21.90;50.60;;;;;;5068877;28;20384;-49
2022/08/20 19:53:30;;;;;;;6.53;2.40;;;21.60;51.90;;;;;;5069987;28;20029;-48
2022/08/20 19:56:02;;;;;;;9.88;2.13;;;21.50;52.20;;;;;;5068317;28;20032;-47
2022/08/20 19:58:30;;;;;;;8.60;2.47;;;21.50;52.10;;;;;;5068079;28;20044;-49
2022/08/20 20:00:57;;;;;;;6.65;3.03;;;21.50;52.30;;;;;;5069367;28;20028;-47
2022/08/20 20:03:27;;;;;;;6.78;2.88;;;21.50;52.40;;;;;;5051649;28;20052;-47
2022/08/20 20:06:09;;;;;;;9.68;2.85;;;21.60;52.50;;;;;;5070655;28;20017;-47
2022/08/20 20:08:48;;;;;;;13.02;3.47;;;21.50;52.70;;;;;;5069646;28;20033;-48
2022/08/20 20:11:17;;;;;;;6.90;3.10;;;21.60;52.80;;;;;;5067712;28;20039;-49
2022/08/20 20:13:44;;;;;;;16.27;7.78;;;21.50;53.00;;;;;;5063397;28;20033;-47
2022/08/20 20:16:12;;;;;;;5.88;2.50;;;21.50;53.20;;;;;;5056231;28;20025;-51
2022/08/20 20:18:40;;;;;;;9.70;3.58;;;21.50;53.40;;;;;;5056271;28;20021;-52
2022/08/20 20:21:19;;;;;;;9.23;2.60;;;21.40;53.80;;;;;;5056531;28;20108;-49
2022/08/20 20:23:58;;;;;;;11.60;3.38;;;21.40;54.00;;;;;;5055790;28;20029;-52
2022/08/20 20:26:30;;;;;;;13.70;3.17;;;21.40;54.30;;;;;;5056447;28;20108;-51
2022/08/20 20:29:11;;;;;;;10.70;2.67;;;21.30;54.50;;;;;;5055857;28;20333;-53
2022/08/20 20:31:58;;;;;;;9.50;2.42;;;21.30;54.50;;;;;;5055905;28;20387;-50
2022/08/20 20:34:34;;;;;;;7.80;2.55;;;21.30;54.80;;;;;;5056084;28;20028;-49
2022/08/20 20:37:08;;;;;;;7.57;3.15;;;21.20;55.40;;;;;;5055861;28;20380;-48
2022/08/20 20:39:39;;;;;;;8.45;2.83;;;21.10;55.60;;;;;;5054501;28;20029;-47
2022/08/20 20:42:07;;;;;;;11.77;2.35;;;21.10;55.80;;;;;;5055872;28;20111;-50
2022/08/20 20:44:34;;;;;;;5.55;2.22;;;21.00;56.10;;;;;;5055533;28;20039;-48
2022/08/20 20:47:04;;;;;;;3.33;1.73;;;21.00;56.30;;;;;;5055398;28;20082;-48
2022/08/20 20:49:47;;;;;;;9.70;2.60;;;20.90;56.70;;;;;;5055486;28;20025;-50
2022/08/20 20:52:23;;;;;;;7.38;2.75;;;20.90;57.10;;;;;;5055200;28;20116;-48
2022/08/20 20:54:50;;;;;;;11.27;2.67;;;20.80;57.80;;;;;;5055474;28;20028;-49
2022/08/20 20:57:19;;;;;;;6.30;2.50;;;20.70;58.30;;;;;;5055598;28;20410;-49
2022/08/20 20:59:51;;;;;;;10.57;2.60;;;20.70;59.00;;;;;;5055172;28;20472;-49
2022/08/20 21:02:19;;;;;;;11.85;3.03;;;20.70;59.20;;;;;;5055828;28;20044;-49
2022/08/20 21:04:47;;;;;;;7.18;3.20;;;20.70;59.70;;;;;;5055010;28;20120;-54
2022/08/20 21:07:17;;;;;;;8.60;3.78;;;20.60;60.10;;;;;;5054296;28;20021;-46
2022/08/20 21:09:43;;;;;;;10.60;3.15;;;20.60;60.50;;;;;;5055001;28;20362;-47
2022/08/20 21:12:10;;;;;;;7.22;3.05;;;20.50;60.80;;;;;;5054025;28;20036;-47
2022/08/20 21:14:36;;;;;;;7.50;3.75;;;20.40;61.40;;;;;;5055106;28;20078;-48
2022/08/20 21:17:05;;;;;;;12.20;2.80;;;20.40;61.80;;;;;;5055007;28;20032;-47
2022/08/20 21:19:33;;;;;;;6.95;2.83;;;20.40;61.80;;;;;;5055877;28;20033;-51
2022/08/20 21:21:59;;;;;;;9.10;3.10;;;20.40;62.20;;;;;;5054772;28;20025;-47
2022/08/20 21:24:25;;;;;;;8.98;3.42;;;20.30;62.40;;;;;;5054618;28;20025;-50
2022/08/20 21:26:51;;;;;;;9.93;3.30;;;20.30;62.90;;;;;;5053871;28;20033;-46
2022/08/20 21:29:25;;;;;;;7.55;3.17;;;20.30;63.10;;;;;;5053523;28;20382;-48
2022/08/20 21:31:51;;;;;;;9.70;3.00;;;20.30;63.10;;;;;;5057514;28;20469;-52
2022/08/20 21:34:17;;;;;;;7.45;3.45;;;20.30;63.50;;;;;;5054544;28;20043;-47
2022/08/20 21:36:43;;;;;;;10.25;3.75;;;20.30;63.70;;;;;;5056198;28;20038;-47
2022/08/20 21:39:10;;;;;;;9.80;3.88;;;20.20;63.80;;;;;;5055035;28;20517;-47
2022/08/20 21:41:36;;;;;;;10.80;2.85;;;20.20;64.00;;;;;;5053214;28;20384;-48
2022/08/20 21:44:19;;;;;;;13.10;3.30;;;20.20;64.20;;;;;;5036585;28;20032;-50
2022/08/20 21:46:45;;;;;;;5.18;2.15;;;20.10;64.50;;;;;;5055133;28;20067;-47
2022/08/20 21:49:11;;;;;;;8.77;3.00;;;20.00;64.80;;;;;;5054407;28;20017;-48
2022/08/20 21:51:37;;;;;;;8.55;2.78;;;20.00;65.10;;;;;;5054293;28;20029;-54
2022/08/20 21:54:03;;;;;;;9.43;3.08;;;20.00;65.20;;;;;;5055185;28;20330;-47
2022/08/20 21:56:32;;;;;;;5.45;2.80;;;19.90;65.30;;;;;;5055215;28;20055;-46
2022/08/20 21:58:59;;;;;;;11.68;2.95;;;19.90;65.50;;;;;;5054480;28;20492;-49
2022/08/20 22:01:25;;;;;;;4.63;2.40;;;19.90;65.50;;;;;;5052870;28;20131;-46
2022/08/20 22:03:51;;;;;;;8.55;3.17;;;19.80;65.90;;;;;;5052976;28;20116;-47
2022/08/20 22:06:17;;;;;;;7.88;3.00;;;19.80;65.90;;;;;;5052853;28;20025;-47
2022/08/20 22:08:43;;;;;;;6.10;2.90;;;19.70;66.40;;;;;;5053865;28;20443;-46
2022/08/20 22:11:10;;;;;;;6.15;3.42;;;19.70;66.50;;;;;;5054395;28;20021;-49
2022/08/20 22:13:37;;;;;;;10.90;3.47;;;19.50;67.00;;;;;;5054068;28;20104;-50
2022/08/20 22:16:07;;;;;;;12.82;3.22;;;19.50;67.50;;;;;;5054150;28;20477;-47
2022/08/20 22:18:34;;;;;;;12.88;2.60;;;19.40;67.70;;;;;;5054011;28;20029;-48
2022/08/20 22:21:00;;;;;;;7.38;2.55;;;19.30;68.30;;;;;;5053820;28;20020;-47
2022/08/20 22:23:26;;;;;;;9.10;3.45;;;19.30;68.20;;;;;;5054587;28;20078;-49
2022/08/20 22:25:52;;;;;;;9.85;3.78;;;19.30;68.40;;;;;;5053936;28;20021;-48
2022/08/20 22:28:19;;;;;;;6.10;2.25;;;19.30;68.40;;;;;;5052808;28;20028;-50
2022/08/20 22:30:54;;;;;;;6.63;3.40;;;19.20;69.00;;;;;;5054932;28;20021;-49
2022/08/20 22:33:21;;;;;;;8.60;3.10;;;19.20;69.20;;;;;;5054986;28;20377;-47
2022/08/20 22:35:51;;;;;;;5.00;3.13;;;19.00;69.60;;;;;;5053942;28;20063;-49
2022/08/20 22:38:17;;;;;;;12.80;3.33;;;19.00;69.70;;;;;;5052314;28;20025;-47
2022/08/20 22:40:44;;;;;;;11.43;3.42;;;19.00;70.10;;;;;;5053622;28;20133;-46
2022/08/20 22:43:10;;;;;;;11.23;3.10;;;18.80;70.60;;;;;;5053571;28;20048;-47
2022/08/20 22:45:38;;;;;;;5.53;2.72;;;18.80;70.80;;;;;;5053416;28;20017;-49
2022/08/20 22:48:05;;;;;;;7.25;3.30;;;18.80;71.10;;;;;;5053551;28;20028;-48
2022/08/20 22:50:31;;;;;;;8.80;3.40;;;18.80;71.00;;;;;;5053662;28;20350;-47
2022/08/20 22:52:57;;;;;;;12.20;3.55;;;18.80;71.10;;;;;;5053363;28;20025;-48
2022/08/20 22:55:23;;;;;;;15.07;4.03;;;18.80;71.10;;;;;;5053467;28;20362;-49
2022/08/20 22:57:50;;;;;;;16.70;4.03;;;18.80;71.00;;;;;;5053285;28;20032;-49
2022/08/20 23:00:17;;;;;;;10.48;3.42;;;19.00;70.30;;;;;;5053391;28;20029;-48
2022/08/20 23:02:48;;;;;;;12.65;7.22;;;19.10;70.40;;;;;;5052914;28;20191;-48
2022/08/20 23:05:18;;;;;;;11.02;3.70;;;19.10;70.10;;;;;;5053308;28;20133;-49
2022/08/20 23:07:44;;;;;;;8.48;4.07;;;19.00;70.40;;;;;;5053072;28;20384;-46
2022/08/20 23:10:10;;;;;;;11.30;3.30;;;19.00;70.20;;;;;;5053233;28;20029;-47
2022/08/20 23:12:36;;;;;;;8.43;3.33;;;19.00;70.60;;;;;;5053086;28;20448;-47
2022/08/20 23:15:03;;;;;;;11.30;3.78;;;18.90;70.90;;;;;;5052920;28;20508;-49
2022/08/20 23:17:29;;;;;;;10.60;3.10;;;18.80;71.20;;;;;;5054439;28;20033;-47
2022/08/20 23:19:55;;;;;;;8.65;3.38;;;18.90;71.20;;;;;;5051751;28;20389;-49
2022/08/20 23:22:21;;;;;;;8.13;3.13;;;19.00;70.90;;;;;;5052255;28;20396;-47
2022/08/20 23:24:47;;;;;;;8.15;2.90;;;19.00;70.80;;;;;;5053095;28;20018;-46
2022/08/20 23:27:17;;;;;;;13.13;3.10;;;19.10;70.50;;;;;;5051746;28;20043;-48
2022/08/20 23:29:43;;;;;;;5.15;2.67;;;19.10;70.50;;;;;;5053339;28;20048;-47
2022/08/20 23:32:10;;;;;;;6.15;2.55;;;19.00;70.90;;;;;;5052701;28;20036;-47
2022/08/20 23:34:36;;;;;;;7.82;3.10;;;18.80;71.40;;;;;;5053302;28;20032;-47
2022/08/20 23:37:03;;;;;;;10.25;3.38;;;18.70;71.90;;;;;;5053089;28;20477;-47
2022/08/20 23:39:30;;;;;;;6.53;4.10;;;18.80;71.80;;;;;;5053164;28;20028;-48
2022/08/20 23:41:56;;;;;;;6.45;3.08;;;18.80;71.50;;;;;;5051131;28;20037;-48
2022/08/20 23:44:23;;;;;;;8.02;3.53;;;18.80;71.50;;;;;;5052862;28;20025;-46
2022/08/20 23:46:49;;;;;;;10.48;4.32;;;18.80;71.90;;;;;;5034918;28;20025;-47
2022/08/20 23:49:15;;;;;;;7.88;4.50;;;18.70;71.60;;;;;;5055447;28;20126;-49
2022/08/20 23:51:41;;;;;;;15.68;4.13;;;18.70;71.90;;;;;;5056517;28;20040;-48
2022/08/20 23:54:06;;;;;;;7.65;2.75;;;18.80;71.70;;;;;;5056482;28;20428;-48
2022/08/20 23:56:32;;;;;;;7.82;3.45;;;18.70;71.80;;;;;;5056340;28;20029;-48
2022/08/20 23:58:58;;;;;;;8.00;3.20;;;18.70;72.10;;;;;;5056357;28;20028;-48
